createdAt,value
2018-01-07T00:01:14.805Z,14.27
2018-01-07T00:03:42.654Z,16.00
2018-01-07T00:06:10.177Z,21.03
2018-01-07T00:08:37.671Z,14.77
2018-01-07T00:11:05.386Z,18.77
2018-01-07T00:13:32.896Z,18.23
2018-01-07T00:16:00.426Z,12.33
2018-01-07T00:18:27.949Z,19.70
2018-01-07T00:20:55.467Z,13.00
2018-01-07T00:23:22.975Z,18.57
2018-01-07T00:25:50.496Z,14.77
2018-01-07T00:28:18.080Z,18.57
2018-01-07T00:30:45.617Z,16.00
2018-01-07T00:33:13.146Z,13.50
2018-01-07T00:35:40.614Z,14.07
2018-01-07T00:38:08.141Z,15.97
2018-01-07T00:40:35.675Z,19.30
2018-01-07T00:43:03.154Z,19.63
2018-01-07T00:45:30.650Z,17.67
2018-01-07T00:47:58.172Z,13.43
2018-01-07T00:50:25.633Z,17.87
2018-01-07T00:52:53.149Z,14.10
2018-01-07T00:55:20.732Z,17.47
2018-01-07T00:57:48.211Z,26.00
2018-01-07T01:00:15.683Z,16.13
2018-01-07T01:02:43.268Z,19.07
2018-01-07T01:05:10.798Z,21.00
2018-01-07T01:07:38.266Z,21.27
2018-01-07T01:10:05.779Z,12.70
2018-01-07T01:12:33.240Z,15.13
2018-01-07T01:15:00.898Z,16.57
2018-01-07T01:17:28.370Z,17.03
2018-01-07T01:19:55.843Z,17.67
2018-01-07T01:22:23.294Z,20.87
2018-01-07T01:24:50.785Z,20.23
2018-01-07T01:27:18.240Z,18.57
2018-01-07T01:29:45.722Z,15.90
2018-01-07T01:32:13.287Z,19.73
2018-01-07T01:34:40.786Z,22.10
2018-01-07T01:37:08.273Z,19.17
2018-01-07T01:39:35.811Z,16.70
2018-01-07T01:42:03.415Z,18.33
2018-01-07T01:44:30.892Z,16.13
2018-01-07T01:46:58.415Z,15.83
2018-01-07T01:49:25.891Z,12.90
2018-01-07T01:51:53.362Z,16.67
2018-01-07T01:54:20.930Z,22.67
2018-01-07T01:56:48.401Z,18.70
2018-01-07T01:59:15.874Z,17.40
2018-01-07T02:01:43.354Z,13.73
2018-01-07T02:04:10.818Z,16.97
2018-01-07T02:06:38.281Z,17.93
2018-01-07T02:09:05.744Z,22.13
2018-01-07T02:11:33.216Z,15.90
2018-01-07T02:14:00.687Z,17.07
2018-01-07T02:16:28.145Z,18.73
2018-01-07T02:18:55.742Z,18.63
2018-01-07T02:21:23.202Z,18.63
2018-01-07T02:23:50.682Z,15.77
2018-01-07T02:26:18.156Z,15.00
2018-01-07T02:28:45.629Z,14.43
2018-01-07T02:31:13.084Z,15.20
2018-01-07T02:33:40.583Z,16.03
2018-01-07T02:36:08.088Z,19.93
2018-01-07T02:38:35.587Z,18.77
2018-01-07T02:41:03.066Z,15.30
2018-01-07T02:43:30.630Z,23.10
2018-01-07T02:45:58.099Z,25.53
2018-01-07T02:48:25.570Z,18.70
2018-01-07T02:50:53.061Z,21.53
2018-01-07T02:53:20.613Z,18.27
2018-01-07T02:55:48.083Z,28.60
2018-01-07T02:58:15.650Z,20.27
2018-01-07T03:00:43.214Z,19.17
2018-01-07T03:03:10.686Z,20.63
2018-01-07T03:05:38.143Z,21.53
2018-01-07T03:08:05.638Z,15.10
2018-01-07T03:10:33.095Z,21.27
2018-01-07T03:13:00.673Z,17.50
2018-01-07T03:15:28.154Z,16.93
2018-01-07T03:17:55.641Z,20.30
2018-01-07T03:20:23.162Z,18.23
2018-01-07T03:22:50.629Z,17.53
2018-01-07T03:25:18.090Z,19.40
2018-01-07T03:27:45.585Z,18.57
2018-01-07T03:30:13.062Z,21.03
2018-01-07T03:32:40.623Z,20.03
2018-01-07T03:35:11.160Z,20.47
2018-01-07T03:37:38.650Z,17.87
2018-01-07T03:40:06.127Z,22.10
2018-01-07T03:42:34.417Z,16.60
2018-01-07T03:45:01.985Z,15.97
2018-01-07T03:47:29.450Z,16.57
2018-01-07T03:49:56.922Z,19.93
2018-01-07T03:52:24.427Z,16.23
2018-01-07T03:54:51.898Z,15.10
2018-01-07T03:57:19.365Z,17.07
2018-01-07T03:59:46.905Z,15.00
2018-01-07T04:02:14.379Z,15.90
2018-01-07T04:04:41.839Z,14.13
2018-01-07T04:07:09.310Z,17.00
2018-01-07T04:09:36.781Z,16.53
2018-01-07T04:12:04.261Z,23.80
2018-01-07T04:14:31.731Z,18.03
2018-01-07T04:16:59.203Z,17.90
2018-01-07T04:19:26.805Z,15.03
2018-01-07T04:21:54.282Z,13.47
2018-01-07T04:24:21.801Z,11.90
2018-01-07T04:26:49.295Z,12.77
2018-01-07T04:29:16.837Z,14.63
2018-01-07T04:31:44.305Z,13.97
2018-01-07T04:34:11.782Z,13.00
2018-01-07T04:36:39.350Z,13.77
2018-01-07T04:39:06.825Z,15.43
2018-01-07T04:41:34.328Z,17.77
2018-01-07T04:44:01.817Z,14.73
2018-01-07T04:46:29.290Z,12.97
2018-01-07T04:48:56.811Z,13.73
2018-01-07T04:51:24.312Z,14.90
2018-01-07T04:53:51.778Z,19.97
2018-01-07T04:56:19.410Z,13.57
2018-01-07T04:58:46.875Z,15.20
2018-01-07T05:01:14.461Z,15.20
2018-01-07T05:03:41.914Z,20.67
2018-01-07T05:06:09.394Z,13.90
2018-01-07T05:08:36.884Z,14.27
2018-01-07T05:11:04.409Z,12.90
2018-01-07T05:13:31.946Z,15.17
2018-01-07T05:15:59.418Z,15.27
2018-01-07T05:18:26.889Z,14.37
2018-01-07T05:20:54.346Z,13.67
2018-01-07T05:23:21.898Z,14.77
2018-01-07T05:25:49.379Z,13.73
2018-01-07T05:28:16.847Z,13.90
2018-01-07T05:30:44.419Z,17.00
2018-01-07T05:33:11.880Z,12.17
2018-01-07T05:35:39.375Z,11.07
2018-01-07T05:38:06.846Z,12.77
2018-01-07T05:40:34.343Z,13.97
2018-01-07T05:43:01.846Z,13.70
2018-01-07T05:45:29.286Z,13.00
2018-01-07T05:47:56.770Z,15.10
2018-01-07T05:50:24.238Z,14.40
2018-01-07T05:52:51.709Z,12.37
2018-01-07T05:55:19.170Z,14.87
2018-01-07T05:57:46.681Z,13.10
2018-01-07T06:00:14.238Z,11.30
2018-01-07T06:02:41.808Z,10.67
2018-01-07T06:05:09.271Z,12.37
2018-01-07T06:07:36.750Z,10.77
2018-01-07T06:10:04.210Z,11.80
2018-01-07T06:12:31.726Z,9.87
2018-01-07T06:14:59.197Z,11.43
2018-01-07T06:17:26.743Z,9.77
2018-01-07T06:19:54.228Z,13.00
2018-01-07T06:22:21.682Z,10.13
2018-01-07T06:24:49.245Z,10.90
2018-01-07T06:27:16.734Z,8.73
2018-01-07T06:29:44.285Z,11.00
2018-01-07T06:32:11.763Z,7.50
2018-01-07T06:34:39.339Z,7.27
2018-01-07T06:37:06.811Z,6.77
2018-01-07T06:39:34.272Z,6.83
2018-01-07T06:42:01.864Z,5.03
2018-01-07T06:44:29.326Z,6.33
2018-01-07T06:46:56.786Z,5.57
2018-01-07T06:49:24.246Z,4.77
2018-01-07T06:51:51.721Z,4.43
2018-01-07T06:54:19.195Z,4.60
2018-01-07T06:56:46.658Z,4.00
2018-01-07T06:59:14.138Z,4.80
2018-01-07T07:01:41.613Z,3.47
2018-01-07T07:04:09.064Z,4.20
2018-01-07T07:06:36.548Z,4.07
2018-01-07T07:09:04.189Z,4.87
2018-01-07T07:11:31.690Z,5.37
2018-01-07T07:13:59.152Z,3.83
2018-01-07T07:16:26.610Z,4.67
2018-01-07T07:18:54.066Z,4.37
2018-01-07T07:21:21.566Z,4.23
2018-01-07T07:23:49.045Z,5.27
2018-01-07T07:26:16.515Z,5.07
2018-01-07T07:28:44.081Z,5.17
2018-01-07T07:31:11.561Z,5.53
2018-01-07T07:33:39.040Z,4.60
2018-01-07T07:36:06.506Z,5.20
2018-01-07T07:38:34.269Z,7.20
2018-01-07T07:41:01.894Z,4.53
2018-01-07T07:43:29.380Z,4.30
2018-01-07T07:45:56.855Z,4.83
2018-01-07T07:48:24.344Z,5.00
2018-01-07T07:50:51.825Z,3.73
2018-01-07T07:53:19.398Z,5.73
2018-01-07T07:55:46.894Z,4.33
2018-01-07T07:58:14.349Z,4.20
2018-01-07T08:00:42.220Z,4.50
2018-01-07T08:03:09.683Z,5.67
2018-01-07T08:05:37.445Z,4.33
2018-01-07T08:08:04.909Z,4.43
2018-01-07T08:10:32.463Z,6.30
2018-01-07T08:12:59.966Z,7.00
2018-01-07T08:15:27.452Z,5.17
2018-01-07T08:17:54.958Z,4.27
2018-01-07T08:20:22.481Z,4.83
2018-01-07T08:22:49.953Z,4.93
2018-01-07T08:25:17.550Z,4.57
2018-01-07T08:27:45.097Z,6.23
2018-01-07T08:30:12.726Z,5.93
2018-01-07T08:32:40.171Z,6.80
2018-01-07T08:35:07.703Z,5.83
2018-01-07T08:37:35.146Z,5.73
2018-01-07T08:40:02.614Z,6.37
2018-01-07T08:42:30.075Z,5.67
2018-01-07T08:44:57.615Z,6.27
2018-01-07T08:47:25.067Z,6.27
2018-01-07T08:49:52.937Z,6.70
2018-01-07T08:52:20.529Z,6.47
2018-01-07T08:54:47.981Z,7.70
2018-01-07T08:57:15.449Z,6.17
2018-01-07T08:59:43.018Z,5.83
2018-01-07T09:02:10.509Z,6.47
2018-01-07T09:04:38.110Z,5.37
2018-01-07T09:07:05.592Z,5.33
2018-01-07T09:09:33.077Z,5.67
2018-01-07T09:12:00.561Z,5.17
2018-01-07T09:14:28.047Z,8.03
2018-01-07T09:16:55.548Z,5.10
2018-01-07T09:19:23.014Z,5.03
2018-01-07T09:21:50.506Z,6.20
2018-01-07T09:24:17.983Z,5.57
2018-01-07T09:26:45.583Z,7.33
2018-01-07T09:29:13.046Z,6.67
2018-01-07T09:31:40.553Z,5.90
2018-01-07T09:34:08.030Z,6.83
2018-01-07T09:36:35.496Z,5.73
2018-01-07T09:39:02.960Z,5.47
2018-01-07T09:41:30.412Z,5.60
2018-01-07T09:43:57.919Z,6.90
2018-01-07T09:46:25.418Z,6.20
2018-01-07T09:48:52.904Z,6.77
2018-01-07T09:51:24.212Z,5.83
2018-01-07T09:53:51.671Z,5.33
2018-01-07T09:56:19.125Z,6.63
2018-01-07T09:58:46.594Z,5.97
2018-01-07T10:01:14.061Z,6.40
2018-01-07T10:03:41.579Z,5.57
2018-01-07T10:06:09.044Z,6.33
2018-01-07T10:08:36.499Z,6.43
2018-01-07T10:11:03.975Z,5.57
2018-01-07T10:13:31.476Z,6.33
2018-01-07T10:16:02.649Z,6.43
2018-01-07T10:18:30.096Z,6.60
2018-01-07T10:20:57.568Z,6.70
2018-01-07T10:23:25.027Z,6.73
2018-01-07T10:25:52.515Z,6.70
2018-01-07T10:28:19.991Z,5.60
2018-01-07T10:30:47.504Z,6.43
2018-01-07T10:33:14.973Z,7.93
2018-01-07T10:35:42.458Z,5.97
2018-01-07T10:38:09.937Z,5.87
2018-01-07T10:40:37.392Z,11.10
2018-01-07T10:43:04.860Z,9.10
2018-01-07T10:45:32.322Z,6.57
2018-01-07T10:47:59.790Z,6.13
2018-01-07T10:50:27.269Z,5.40
2018-01-07T10:52:54.730Z,5.60
2018-01-07T10:55:22.185Z,5.97
2018-01-07T10:57:49.742Z,6.27
2018-01-07T11:00:17.193Z,8.83
2018-01-07T11:02:44.662Z,6.63
2018-01-07T11:05:12.124Z,5.77
2018-01-07T11:07:39.586Z,5.97
2018-01-07T11:10:07.064Z,6.00
2018-01-07T11:12:34.527Z,5.40
2018-01-07T11:15:02.003Z,4.87
2018-01-07T11:17:29.474Z,6.47
2018-01-07T11:19:57.139Z,7.03
2018-01-07T11:22:24.670Z,5.40
2018-01-07T11:24:52.188Z,5.43
2018-01-07T11:27:19.721Z,6.40
2018-01-07T11:29:47.184Z,6.97
2018-01-07T11:32:14.662Z,7.50
2018-01-07T11:34:42.117Z,6.50
2018-01-07T11:37:09.609Z,6.40
2018-01-07T11:39:37.092Z,6.97
2018-01-07T11:42:04.585Z,6.50
2018-01-07T11:44:32.050Z,7.10
2018-01-07T11:46:59.628Z,7.40
2018-01-07T11:49:27.116Z,6.63
2018-01-07T11:51:54.569Z,7.00
2018-01-07T11:54:22.056Z,12.90
2018-01-07T11:56:49.539Z,7.33
2018-01-07T11:59:17.024Z,8.00
2018-01-07T12:01:44.484Z,8.63
2018-01-07T12:04:11.959Z,7.27
2018-01-07T12:06:39.425Z,7.70
2018-01-07T12:09:06.883Z,7.87
2018-01-07T12:11:34.353Z,7.60
2018-01-07T12:14:01.853Z,7.50
2018-01-07T12:16:29.347Z,9.87
2018-01-07T12:18:56.848Z,6.57
2018-01-07T12:21:25.246Z,9.17
2018-01-07T12:23:52.697Z,7.60
2018-01-07T12:26:20.161Z,7.93
2018-01-07T12:28:47.642Z,10.23
2018-01-07T12:31:15.132Z,7.63
2018-01-07T12:33:42.581Z,8.20
2018-01-07T12:36:10.093Z,6.37
2018-01-07T12:38:37.604Z,7.20
2018-01-07T12:41:05.086Z,8.87
2018-01-07T12:43:32.587Z,9.00
2018-01-07T12:46:00.054Z,7.57
2018-01-07T12:48:27.541Z,8.67
2018-01-07T12:50:55.068Z,7.90
2018-01-07T12:53:22.542Z,8.30
2018-01-07T12:55:49.997Z,8.93
2018-01-07T12:58:17.475Z,7.43
2018-01-07T13:00:45.036Z,8.67
2018-01-07T13:03:12.546Z,8.57
2018-01-07T13:05:40.010Z,8.67
2018-01-07T13:08:07.460Z,7.27
2018-01-07T13:10:34.990Z,8.40
2018-01-07T13:13:02.547Z,12.47
2018-01-07T13:15:30.092Z,12.40
2018-01-07T13:17:57.570Z,11.53
2018-01-07T13:20:25.030Z,10.53
2018-01-07T13:22:52.509Z,9.63
2018-01-07T13:25:19.973Z,9.50
2018-01-07T13:27:48.353Z,9.40
2018-01-07T13:30:15.865Z,9.57
2018-01-07T13:32:43.346Z,8.77
2018-01-07T13:35:10.820Z,9.00
2018-01-07T13:37:38.276Z,10.60
2018-01-07T13:40:05.748Z,10.73
2018-01-07T13:42:33.258Z,9.43
2018-01-07T13:45:00.837Z,10.30
2018-01-07T13:47:28.295Z,11.47
2018-01-07T13:49:55.772Z,11.37
2018-01-07T13:52:23.286Z,13.00
2018-01-07T13:54:50.813Z,15.07
2018-01-07T13:57:18.325Z,12.10
2018-01-07T13:59:45.826Z,10.37
2018-01-07T14:02:13.306Z,10.33
2018-01-07T14:04:40.816Z,10.03
2018-01-07T14:07:08.371Z,12.20
2018-01-07T14:09:35.891Z,12.07
2018-01-07T14:12:03.381Z,12.97
2018-01-07T14:14:30.889Z,11.63
2018-01-07T14:16:58.375Z,10.93
2018-01-07T14:19:25.858Z,10.80
2018-01-07T14:21:53.364Z,14.60
2018-01-07T14:24:20.904Z,12.53
2018-01-07T14:26:48.462Z,15.33
2018-01-07T14:29:15.983Z,14.27
2018-01-07T14:31:43.441Z,12.57
2018-01-07T14:34:10.918Z,12.47
2018-01-07T14:36:38.501Z,15.50
2018-01-07T14:39:24.311Z,15.03
2018-01-07T14:41:59.293Z,15.70
2018-01-07T14:44:26.802Z,14.10
2018-01-07T14:46:54.260Z,13.70
2018-01-07T14:49:21.748Z,14.93
2018-01-07T14:51:49.279Z,14.77
2018-01-07T14:54:16.778Z,13.33
2018-01-07T14:56:44.984Z,17.33
2018-01-07T14:59:12.512Z,15.83
2018-01-07T15:01:40.040Z,15.23
2018-01-07T15:04:07.542Z,15.13
2018-01-07T15:06:35.112Z,14.80
2018-01-07T15:09:05.611Z,15.10
2018-01-07T15:11:33.225Z,15.47
2018-01-07T15:14:00.742Z,15.53
2018-01-07T15:16:28.260Z,14.93
2018-01-07T15:18:55.725Z,14.60
2018-01-07T15:21:23.254Z,15.67
2018-01-07T15:23:50.705Z,13.47
2018-01-07T15:26:18.214Z,15.93
2018-01-07T15:28:45.688Z,16.90
2018-01-07T15:31:13.167Z,18.27
2018-01-07T15:33:40.759Z,16.97
2018-01-07T15:36:08.269Z,18.07
2018-01-07T15:38:35.846Z,19.30
2018-01-07T15:41:03.307Z,16.87
2018-01-07T15:43:31.717Z,21.50
2018-01-07T15:45:59.223Z,18.63
2018-01-07T15:48:26.732Z,18.90
2018-01-07T15:50:54.230Z,16.87
2018-01-07T15:53:21.751Z,19.47
2018-01-07T15:55:49.234Z,18.40
2018-01-07T15:58:16.792Z,17.20
2018-01-07T16:00:44.335Z,17.90
2018-01-07T16:03:11.862Z,19.53
2018-01-07T16:05:39.386Z,21.63
2018-01-07T16:08:06.948Z,20.73
2018-01-07T16:10:34.423Z,20.17
2018-01-07T16:13:01.906Z,26.40
2018-01-07T16:15:29.426Z,21.43
2018-01-07T16:17:57.025Z,24.07
2018-01-07T16:20:24.478Z,23.13
2018-01-07T16:22:52.014Z,21.73
2018-01-07T16:25:19.511Z,20.93
2018-01-07T16:27:47.125Z,23.77
2018-01-07T16:30:14.633Z,24.37
2018-01-07T16:32:42.154Z,21.80
2018-01-07T16:35:11.044Z,20.93
2018-01-07T16:37:38.566Z,26.90
2018-01-07T16:40:06.072Z,21.37
2018-01-07T16:42:33.704Z,20.97
2018-01-07T16:45:02.261Z,22.60
2018-01-07T16:47:29.766Z,20.30
2018-01-07T16:49:57.321Z,23.67
2018-01-07T16:52:24.927Z,22.27
2018-01-07T16:54:52.562Z,20.50
2018-01-07T16:57:20.141Z,23.17
2018-01-07T16:59:47.710Z,20.73
2018-01-07T17:02:15.238Z,23.03
2018-01-07T17:04:42.739Z,22.73
2018-01-07T17:07:10.316Z,21.83
2018-01-07T17:09:37.898Z,22.37
2018-01-07T17:12:05.614Z,25.70
2018-01-07T17:14:33.160Z,22.40
2018-01-07T17:17:00.643Z,25.73
2018-01-07T17:19:28.099Z,24.43
2018-01-07T17:21:55.651Z,26.80
2018-01-07T17:24:23.153Z,24.53
2018-01-07T17:26:50.674Z,24.43
2018-01-07T17:29:18.211Z,26.23
2018-01-07T17:31:45.750Z,24.97
2018-01-07T17:34:13.300Z,32.23
2018-01-07T17:36:40.894Z,27.80
2018-01-07T17:39:08.409Z,27.43
2018-01-07T17:41:36.015Z,26.83
2018-01-07T17:44:03.569Z,25.87
2018-01-07T17:46:31.053Z,26.03
2018-01-07T17:48:58.575Z,28.00
2018-01-07T17:51:26.076Z,25.43
2018-01-07T17:53:53.642Z,30.83
2018-01-07T17:56:21.152Z,27.00
2018-01-07T17:58:48.664Z,28.50
2018-01-07T18:01:16.251Z,25.27
2018-01-07T18:03:43.744Z,24.07
2018-01-07T18:06:11.256Z,27.40
2018-01-07T18:08:38.804Z,26.20
2018-01-07T18:11:06.360Z,26.70
2018-01-07T18:13:33.971Z,23.47
2018-01-07T18:16:01.489Z,29.33
2018-01-07T18:18:29.010Z,29.93
2018-01-07T18:20:56.560Z,28.57
2018-01-07T18:23:24.144Z,24.53
2018-01-07T18:25:51.694Z,28.97
2018-01-07T18:28:19.294Z,24.53
2018-01-07T18:30:46.875Z,26.37
2018-01-07T18:33:14.409Z,24.20
2018-01-07T18:35:41.921Z,25.97
2018-01-07T18:38:09.438Z,30.57
2018-01-07T18:40:36.996Z,24.23
2018-01-07T18:43:04.513Z,21.00
2018-01-07T18:45:32.042Z,20.57
2018-01-07T18:47:59.569Z,25.27
2018-01-07T18:50:27.140Z,24.27
2018-01-07T18:52:54.659Z,23.93
2018-01-07T18:55:22.184Z,24.47
2018-01-07T18:57:49.712Z,20.50
2018-01-07T19:00:17.225Z,24.13
2018-01-07T19:02:44.760Z,21.27
2018-01-07T19:05:12.278Z,24.23
2018-01-07T19:07:39.777Z,24.07
2018-01-07T19:10:07.290Z,21.07
2018-01-07T19:12:34.800Z,21.33
2018-01-07T19:15:02.324Z,23.80
2018-01-07T19:17:29.837Z,24.43
2018-01-07T19:19:57.371Z,21.73
2018-01-07T19:22:24.884Z,22.50
2018-01-07T19:24:52.447Z,19.03
2018-01-07T19:27:19.956Z,22.80
2018-01-07T19:29:47.490Z,19.93
2018-01-07T19:32:15.027Z,23.87
2018-01-07T19:34:42.580Z,19.87
2018-01-07T19:37:10.105Z,22.90
2018-01-07T19:39:37.648Z,19.97
2018-01-07T19:42:05.190Z,19.23
2018-01-07T19:44:32.811Z,20.03
2018-01-07T19:47:00.336Z,22.77
2018-01-07T19:49:27.864Z,20.90
2018-01-07T19:51:55.393Z,20.60
2018-01-07T19:54:22.919Z,21.30
2018-01-07T19:56:50.463Z,20.13
2018-01-07T19:59:17.972Z,21.43
2018-01-07T20:01:45.514Z,24.90
2018-01-07T20:04:13.038Z,21.80
2018-01-07T20:06:40.559Z,19.77
2018-01-07T20:09:08.115Z,25.83
2018-01-07T20:11:35.653Z,19.83
2018-01-07T20:14:03.182Z,21.40
2018-01-07T20:16:31.006Z,22.63
2018-01-07T20:18:58.539Z,18.67
2018-01-07T20:21:26.042Z,25.53
2018-01-07T20:23:53.594Z,23.70
2018-01-07T20:26:21.133Z,22.07
2018-01-07T20:28:48.669Z,23.63
2018-01-07T20:31:16.193Z,23.17
2018-01-07T20:33:43.729Z,23.53
2018-01-07T20:36:11.298Z,23.53
2018-01-07T20:38:38.873Z,26.40
2018-01-07T20:41:06.403Z,24.87
2018-01-07T20:43:34.036Z,26.27
2018-01-07T20:46:01.610Z,25.87
2018-01-07T20:48:29.117Z,24.10
2018-01-07T20:50:56.656Z,21.03
2018-01-07T20:53:24.190Z,21.97
2018-01-07T20:55:51.694Z,22.27
2018-01-07T20:58:19.254Z,23.40
2018-01-07T21:00:46.866Z,25.87
2018-01-07T21:03:14.395Z,24.90
2018-01-07T21:05:41.906Z,23.77
2018-01-07T21:08:10.222Z,24.30
2018-01-07T21:10:37.740Z,22.83
2018-01-07T21:13:25.158Z,24.50
2018-01-07T21:15:54.472Z,26.93
2018-01-07T21:18:21.988Z,23.57
2018-01-07T21:20:49.509Z,29.97
2018-01-07T21:23:17.016Z,23.90
2018-01-07T21:25:44.605Z,21.73
2018-01-07T21:28:12.112Z,23.00
2018-01-07T21:30:39.647Z,24.03
2018-01-07T21:33:07.220Z,22.77
2018-01-07T21:35:34.734Z,24.00
2018-01-07T21:38:02.272Z,23.87
2018-01-07T21:40:29.803Z,26.13
2018-01-07T21:42:57.376Z,24.47
2018-01-07T21:45:24.959Z,30.97
2018-01-07T21:47:52.489Z,32.03
2018-01-07T21:50:20.010Z,26.80
2018-01-07T21:52:47.568Z,26.97
2018-01-07T21:55:15.102Z,25.60
2018-01-07T21:57:42.612Z,30.57
2018-01-07T22:00:33.925Z,28.83
2018-01-07T22:03:13.193Z,26.57
2018-01-07T22:05:55.588Z,33.30
2018-01-07T22:08:23.104Z,32.27
2018-01-07T22:10:50.620Z,28.87
2018-01-07T22:13:18.157Z,30.67
2018-01-07T22:15:45.666Z,26.43
2018-01-07T22:18:13.183Z,30.07
2018-01-07T22:20:40.717Z,28.30
2018-01-07T22:23:08.232Z,28.77
2018-01-07T22:25:35.750Z,32.00
2018-01-07T22:28:03.264Z,28.33
2018-01-07T22:30:30.836Z,25.97
2018-01-07T22:32:58.349Z,28.27
2018-01-07T22:35:25.869Z,28.67
2018-01-07T22:37:53.380Z,35.57
2018-01-07T22:40:20.911Z,29.50
2018-01-07T22:42:48.417Z,29.23
2018-01-07T22:45:15.933Z,31.67
2018-01-07T22:47:49.200Z,27.50
2018-01-07T22:50:16.692Z,28.70
2018-01-07T22:52:44.216Z,27.67
2018-01-07T22:55:11.733Z,27.40
2018-01-07T22:57:39.260Z,32.20
2018-01-07T23:00:06.796Z,32.93
2018-01-07T23:02:34.336Z,26.23
2018-01-07T23:05:01.878Z,31.23
2018-01-07T23:07:29.409Z,26.80
2018-01-07T23:09:56.955Z,34.37
2018-01-07T23:12:24.521Z,33.10
2018-01-07T23:14:52.060Z,28.03
2018-01-07T23:17:19.593Z,31.87
2018-01-07T23:19:52.290Z,29.90
2018-01-07T23:22:19.820Z,24.83
2018-01-07T23:24:47.398Z,29.97
2018-01-07T23:27:14.908Z,28.90
2018-01-07T23:29:42.436Z,32.30
2018-01-07T23:32:09.905Z,26.80
2018-01-07T23:34:37.425Z,28.83
2018-01-07T23:37:04.932Z,31.97
2018-01-07T23:39:32.482Z,28.93
2018-01-07T23:41:59.992Z,30.47
2018-01-07T23:44:27.540Z,27.97
2018-01-07T23:46:54.998Z,29.17
2018-01-07T23:49:22.506Z,28.93
2018-01-07T23:51:50.016Z,31.47
2018-01-07T23:54:17.622Z,27.20
2018-01-07T23:56:45.143Z,30.60
2018-01-07T23:59:12.601Z,27.07
